Time;durP1;ratioP1;P1;durP2;ratioP2;P2;SDS_P1;SDS_P2;PMS_P1;PMS_P2;Temp;Humidity;BMP_temperature;BMP_pressure;BME280_temperature;BME280_humidity;BME280_pressure;Samples;Min_cycle;Max_cycle;Signal;HPM_P1;HPM_P2
2023/01/31 00:02:30;;;;;;;23.10;14.20;;;;;;;-0.58;77.94;100460.48;107469;1253;99243;-62
2023/01/31 00:04:59;;;;;;;25.20;13.70;;;;;;;-0.61;77.90;100461.14;107483;1257;99120;-64
2023/01/31 00:07:28;;;;;;;25.50;14.20;;;;;;;-0.62;78.04;100463.34;107477;1257;112360;-60
2023/01/31 00:09:56;;;;;;;24.10;14.40;;;;;;;-0.65;78.30;100464.32;107435;1253;109250;-59
2023/01/31 00:12:24;;;;;;;25.50;13.30;;;;;;;-0.66;78.73;100462.07;107398;1253;108425;-59
2023/01/31 00:14:53;;;;;;;24.90;14.30;;;;;;;-0.67;78.78;100463.91;107447;1253;99258;-65
2023/01/31 00:17:21;;;;;;;25.90;14.10;;;;;;;-0.67;78.80;100467.41;107485;1253;99344;-60
2023/01/31 00:19:49;;;;;;;26.40;15.20;;;;;;;-0.64;78.52;100462.00;107382;1259;113698;-59
2023/01/31 00:22:17;;;;;;;26.00;13.80;;;;;;;-0.57;78.34;100456.60;107479;1253;109268;-60
2023/01/31 00:24:46;;;;;;;27.10;14.30;;;;;;;-0.52;78.72;100459.66;107442;1253;108618;-59
2023/01/31 00:27:14;;;;;;;24.90;14.40;;;;;;;-0.46;78.56;100455.35;107492;1253;99197;-62
2023/01/31 00:29:42;;;;;;;26.60;13.80;;;;;;;-0.42;78.84;100452.69;107403;1253;99799;-58
2023/01/31 00:32:10;;;;;;;25.90;13.40;;;;;;;-0.38;79.00;100448.77;107476;1253;114464;-60
2023/01/31 00:34:39;;;;;;;27.40;14.70;;;;;;;-0.30;79.08;100450.73;107513;1253;109100;-60
2023/01/31 00:37:07;;;;;;;22.90;12.90;;;;;;;-0.26;78.87;100447.34;107346;1253;109135;-61
2023/01/31 00:39:35;;;;;;;25.20;14.00;;;;;;;-0.19;79.55;100446.80;107525;1254;99181;-61
2023/01/31 00:42:04;;;;;;;27.20;14.40;;;;;;;-0.14;79.89;100442.17;107572;1254;99193;-60
2023/01/31 00:44:32;;;;;;;24.40;13.30;;;;;;;-0.10;80.20;100440.91;107563;1254;113463;-58
2023/01/31 00:47:02;;;;;;;22.50;13.40;;;;;;;-0.08;80.39;100446.63;107582;1254;109885;-59
2023/01/31 00:49:31;;;;;;;25.00;13.00;;;;;;;-0.07;80.13;100443.43;107561;1253;108259;-62
2023/01/31 00:51:59;;;;;;;22.60;13.70;;;;;;;-0.04;79.91;100447.14;107406;1253;99253;-62
2023/01/31 00:54:27;;;;;;;26.20;14.20;;;;;;;-0.04;80.03;100448.55;107588;1252;99852;-60
2023/01/31 00:56:56;;;;;;;21.80;12.60;;;;;;;-0.04;79.78;100450.31;107567;1254;113250;-61
2023/01/31 00:59:24;;;;;;;22.50;12.80;;;;;;;-0.02;79.57;100449.52;107508;1253;110912;-59
2023/01/31 01:01:54;;;;;;;23.60;12.80;;;;;;;0.02;79.69;100446.64;107449;1254;108697;-60
2023/01/31 01:04:23;;;;;;;21.90;13.50;;;;;;;0.04;79.48;100445.88;107550;1252;99209;-59
2023/01/31 01:06:52;;;;;;;29.60;14.60;;;;;;;0.10;79.51;100443.61;107550;1252;99099;-60
2023/01/31 01:09:21;;;;;;;20.60;12.90;;;;;;;0.18;79.45;100442.19;107436;1254;114336;-59
2023/01/31 01:11:50;;;;;;;29.50;14.70;;;;;;;0.25;79.34;100441.64;107427;1253;111108;-60
2023/01/31 01:14:19;;;;;;;25.10;14.10;;;;;;;0.32;79.20;100440.04;107597;1252;108327;-61
2023/01/31 01:16:47;;;;;;;28.70;14.70;;;;;;;0.38;78.98;100442.25;107576;1254;99222;-60
2023/01/31 01:19:18;;;;;;;24.30;14.10;;;;;;;0.38;78.80;100444.52;107565;1253;99741;-60
2023/01/31 01:21:47;;;;;;;27.00;14.00;;;;;;;0.35;78.62;100442.75;107578;1254;113153;-60
2023/01/31 01:24:18;;;;;;;25.40;13.30;;;;;;;0.29;78.64;100437.89;107563;1253;109671;-61
2023/01/31 01:26:47;;;;;;;26.10;14.20;;;;;;;0.27;78.65;100434.68;107542;1254;108258;-60
2023/01/31 01:29:16;;;;;;;20.70;12.90;;;;;;;0.26;78.84;100434.73;107593;1252;99211;-60
2023/01/31 01:31:45;;;;;;;27.10;14.10;;;;;;;0.17;78.93;100433.94;107641;1253;99074;-58
2023/01/31 01:34:15;;;;;;;24.90;14.40;;;;;;;0.07;78.62;100429.66;107603;1254;113578;-59
2023/01/31 01:36:43;;;;;;;25.90;14.60;;;;;;;-0.00;78.69;100430.05;107623;1253;110177;-59
2023/01/31 01:39:17;;;;;;;24.10;14.30;;;;;;;-0.11;78.77;100427.23;107386;1253;108099;-60
2023/01/31 01:41:45;;;;;;;26.70;14.70;;;;;;;-0.17;78.65;100423.61;107505;1253;99381;-59
2023/01/31 01:44:42;;;;;;;24.60;14.20;;;;;;;-0.19;78.70;100417.40;107507;1253;99184;-65
2023/01/31 01:47:33;;;;;;;24.50;13.10;;;;;;;-0.24;78.70;100414.86;107367;1259;113647;-60
2023/01/31 01:50:12;;;;;;;24.90;14.40;;;;;;;-0.29;78.56;100409.42;107499;1253;108182;-60
2023/01/31 01:52:56;;;;;;;26.40;15.10;;;;;;;-0.31;78.55;100411.95;107454;1252;107226;-59
2023/01/31 01:55:32;;;;;;;;;;;;;;;-0.33;78.66;100412.40;107497;1253;99289;-59
2023/01/31 01:58:10;;;;;;;26.60;14.80;;;;;;;-0.36;78.52;100407.09;107507;1254;99192;-58
2023/01/31 02:00:39;;;;;;;27.80;14.40;;;;;;;-0.39;78.39;100405.83;107598;1253;112132;-58
2023/01/31 02:03:07;;;;;;;27.10;15.30;;;;;;;-0.40;78.35;100405.34;107617;1256;109678;-60
2023/01/31 02:05:44;;;;;;;32.00;16.40;;;;;;;-0.41;78.25;100406.67;107557;1256;108750;-60
2023/01/31 02:08:16;;;;;;;26.30;14.60;;;;;;;-0.43;78.16;100400.77;107602;1253;99336;-59
2023/01/31 02:10:54;;;;;;;32.40;16.60;;;;;;;-0.45;78.15;100402.46;107595;1256;99351;-60
2023/01/31 02:13:24;;;;;;;29.00;15.70;;;;;;;-0.46;78.13;100403.20;107508;1253;112228;-60
2023/01/31 02:15:54;;;;;;;32.00;17.10;;;;;;;-0.45;78.04;100399.47;107498;1253;109725;-60
2023/01/31 02:18:24;;;;;;;29.00;15.50;;;;;;;-0.44;78.11;100397.98;107430;1253;108382;-60
2023/01/31 02:21:31;;;;;;;27.30;15.80;;;;;;;-0.42;78.44;100396.84;107312;1253;99016;-60
2023/01/31 02:24:29;;;;;;;33.70;16.50;;;;;;;-0.40;78.57;100400.08;107343;1253;99822;-59
2023/01/31 02:27:09;;;;;;;35.50;14.20;;;;;;;-0.39;78.88;100403.39;107517;1258;113129;-59
2023/01/31 02:30:00;;;;;;;26.40;15.00;;;;;;;-0.40;78.81;100404.12;107410;1253;109272;-60
2023/01/31 02:33:00;;;;;;;27.00;14.30;;;;;;;-0.41;79.11;100403.48;107443;1254;108638;-60
2023/01/31 02:35:51;;;;;;;23.80;13.50;;;;;;;-0.43;79.11;100400.92;107471;1253;99173;-61
2023/01/31 02:38:50;;;;;;;24.90;14.00;;;;;;;-0.39;79.63;100395.80;107513;1253;99833;-59
2023/01/31 02:41:53;;;;;;;26.00;14.30;;;;;;;-0.35;79.60;100393.98;107432;1253;112286;-61
2023/01/31 02:45:00;;;;;;;26.80;16.10;;;;;;;-0.27;79.47;100390.81;107490;1253;110061;-61
2023/01/31 02:47:56;;;;;;;30.10;15.50;;;;;;;-0.16;79.49;100401.73;107493;1253;107561;-59
2023/01/31 02:50:36;;;;;;;24.90;13.90;;;;;;;-0.12;79.31;100402.56;107304;1254;99234;-60
2023/01/31 02:53:16;;;;;;;23.40;13.00;;;;;;;-0.10;79.30;100407.05;107510;1253;99206;-60
2023/01/31 02:56:19;;;;;;;26.60;14.10;;;;;;;-0.12;79.09;100410.52;107485;1253;113303;-60
2023/01/31 02:59:09;;;;;;;22.20;13.20;;;;;;;-0.14;79.01;100404.80;107534;1253;109206;-63
2023/01/31 03:01:45;;;;;;;26.10;13.20;;;;;;;-0.10;79.26;100407.42;107318;1253;107256;-60
2023/01/31 03:04:14;;;;;;;24.90;12.60;;;;;;;-0.11;78.86;100411.86;107475;1253;99191;-60
2023/01/31 03:06:53;;;;;;;24.30;13.50;;;;;;;-0.11;78.94;100411.55;107357;1254;99713;-59
2023/01/31 03:09:48;;;;;;;20.50;12.60;;;;;;;-0.14;78.74;100406.03;107542;1253;112074;-60
2023/01/31 03:12:26;;;;;;;26.50;14.30;;;;;;;-0.17;78.47;100412.14;107274;1253;108852;-59
2023/01/31 03:15:03;;;;;;;24.60;13.60;;;;;;;-0.17;78.52;100411.13;107505;1253;108615;-60
2023/01/31 03:17:41;;;;;;;27.60;13.60;;;;;;;-0.21;78.57;100409.53;107276;1253;99215;-59
2023/01/31 03:20:12;;;;;;;26.60;13.40;;;;;;;-0.22;78.40;100407.11;107523;1254;99073;-62
2023/01/31 03:22:56;;;;;;;22.80;14.10;;;;;;;-0.22;78.57;100409.06;107402;1254;113761;-61
2023/01/31 03:25:28;;;;;;;27.90;14.40;;;;;;;-0.26;78.35;100402.89;107440;1253;110162;-60
2023/01/31 03:28:03;;;;;;;23.70;14.00;;;;;;;-0.30;78.32;100409.65;107511;1253;108438;-59
2023/01/31 03:30:38;;;;;;;23.00;14.40;;;;;;;-0.36;78.47;100412.20;107323;1253;99201;-60
2023/01/31 03:33:23;;;;;;;30.20;15.50;;;;;;;-0.45;78.88;100417.24;107555;1253;99770;-60
2023/01/31 03:35:56;;;;;;;;;;;;;;;-0.51;79.08;100412.25;107462;1253;111571;-58
2023/01/31 03:38:33;;;;;;;24.60;13.50;;;;;;;-0.58;79.83;100410.48;107580;1254;109837;-61
2023/01/31 03:41:10;;;;;;;23.40;13.70;;;;;;;-0.62;79.80;100413.14;107643;1255;107768;-60
2023/01/31 03:43:49;;;;;;;27.80;14.20;;;;;;;-0.61;79.91;100409.59;107569;1254;99226;-60
2023/01/31 03:46:23;;;;;;;29.50;15.30;;;;;;;-0.57;80.25;100413.58;107471;1254;99188;-59
2023/01/31 03:48:53;;;;;;;;;;;;;;;-0.53;80.12;100412.35;107463;1254;114387;-58
2023/01/31 03:51:26;;;;;;;27.40;15.40;;;;;;;-0.49;80.15;100416.55;107567;1254;110219;-59
2023/01/31 03:54:02;;;;;;;24.40;13.90;;;;;;;-0.43;80.21;100422.25;107599;1254;108684;-60
2023/01/31 03:56:46;;;;;;;34.20;15.20;;;;;;;-0.42;80.19;100420.60;107557;1254;99803;-61
2023/01/31 03:59:21;;;;;;;24.80;13.30;;;;;;;-0.39;79.97;100419.77;107639;1254;99054;-59
2023/01/31 04:01:54;;;;;;;24.20;13.00;;;;;;;-0.37;79.84;100416.64;107593;1254;113866;-58
2023/01/31 04:04:40;;;;;;;24.60;13.30;;;;;;;-0.33;79.99;100411.02;107458;1254;110114;-60
2023/01/31 04:07:09;;;;;;;21.10;12.00;;;;;;;-0.31;79.89;100414.64;107599;1254;107260;-58
2023/01/31 04:09:38;;;;;;;27.90;14.40;;;;;;;-0.28;79.76;100419.26;107598;1253;99192;-58
2023/01/31 04:12:10;;;;;;;22.80;13.40;;;;;;;-0.24;79.95;100414.30;107580;1254;99071;-61
2023/01/31 04:14:39;;;;;;;26.40;14.40;;;;;;;-0.22;79.69;100409.96;107597;1254;112082;-61
2023/01/31 04:17:07;;;;;;;24.30;13.20;;;;;;;-0.15;79.81;100413.85;107555;1256;108991;-61
2023/01/31 04:19:36;;;;;;;23.80;13.30;;;;;;;-0.09;79.72;100410.91;107401;1253;108247;-59
2023/01/31 04:22:04;;;;;;;23.70;13.30;;;;;;;-0.03;79.58;100412.35;107535;1254;99353;-61
2023/01/31 04:24:33;;;;;;;24.60;13.20;;;;;;;0.03;79.83;100408.16;107578;1256;99074;-60
2023/01/31 04:27:01;;;;;;;24.90;13.20;;;;;;;0.11;79.85;100409.73;107550;1254;113085;-61
2023/01/31 04:29:30;;;;;;;19.40;11.20;;;;;;;0.16;79.61;100415.30;107563;1254;109322;-59
2023/01/31 04:31:59;;;;;;;29.30;13.90;;;;;;;0.12;78.93;100414.81;107539;1254;108330;-60
2023/01/31 04:34:27;;;;;;;31.80;16.30;;;;;;;0.07;78.84;100421.56;107581;1254;99199;-59
2023/01/31 04:36:56;;;;;;;27.90;14.10;;;;;;;0.07;78.88;100418.74;107549;1254;99276;-59
2023/01/31 04:39:24;;;;;;;22.90;13.30;;;;;;;0.06;78.65;100424.06;107566;1256;113694;-60
2023/01/31 04:41:52;;;;;;;24.30;13.70;;;;;;;0.07;78.69;100423.15;107602;1254;109080;-65
2023/01/31 04:44:21;;;;;;;27.40;14.30;;;;;;;0.10;78.81;100428.83;107556;1254;107297;-59
2023/01/31 04:46:49;;;;;;;29.10;15.80;;;;;;;0.10;78.54;100434.66;107548;1253;99172;-60
2023/01/31 04:49:17;;;;;;;30.60;15.40;;;;;;;0.06;78.28;100431.14;107631;1254;99862;-59
2023/01/31 04:51:46;;;;;;;28.90;14.50;;;;;;;0.02;78.14;100430.80;107599;1254;112832;-60
2023/01/31 04:54:15;;;;;;;29.00;15.70;;;;;;;-0.00;78.19;100430.77;107628;1254;108961;-59
2023/01/31 04:56:43;;;;;;;40.60;17.70;;;;;;;-0.01;78.15;100434.99;107591;1256;107545;-60
2023/01/31 04:59:12;;;;;;;26.60;15.30;;;;;;;-0.04;77.91;100436.02;107525;1254;99188;-61
2023/01/31 05:01:41;;;;;;;29.50;15.90;;;;;;;-0.08;77.82;100441.34;107554;1254;99177;-62
2023/01/31 05:04:09;;;;;;;45.00;18.60;;;;;;;-0.10;77.70;100441.81;107589;1254;113723;-60
2023/01/31 05:06:38;;;;;;;36.60;16.70;;;;;;;-0.13;77.55;100449.19;107602;1254;109236;-61
2023/01/31 05:09:06;;;;;;;30.90;17.10;;;;;;;-0.17;77.68;100452.86;107550;1256;107461;-59
2023/01/31 05:11:35;;;;;;;25.90;14.60;;;;;;;-0.19;77.55;100455.96;107594;1253;99190;-61
2023/01/31 05:14:04;;;;;;;29.20;15.40;;;;;;;-0.22;77.73;100460.02;107571;1254;99708;-59
2023/01/31 05:16:32;;;;;;;35.10;16.50;;;;;;;-0.26;77.83;100463.34;107585;1256;112722;-59
2023/01/31 05:19:00;;;;;;;40.10;19.60;;;;;;;-0.29;77.90;100467.92;107572;1254;109152;-60
2023/01/31 05:21:29;;;;;;;31.90;16.40;;;;;;;-0.33;78.06;100463.37;107577;1254;108323;-58
2023/01/31 05:23:58;;;;;;;33.70;16.90;;;;;;;-0.37;78.03;100464.95;107593;1254;99068;-61
2023/01/31 05:26:26;;;;;;;28.40;17.00;;;;;;;-0.36;78.21;100464.77;107544;1254;99064;-60
2023/01/31 05:28:54;;;;;;;33.20;16.20;;;;;;;-0.34;78.03;100469.04;107569;1254;113603;-60
2023/01/31 05:31:23;;;;;;;33.60;16.70;;;;;;;-0.30;78.26;100471.51;107600;1253;110112;-62
2023/01/31 05:33:52;;;;;;;37.10;19.60;;;;;;;-0.27;78.32;100469.96;107554;1254;108077;-59
2023/01/31 05:36:20;;;;;;;25.90;14.10;;;;;;;-0.25;78.34;100470.22;107553;1254;99249;-59
2023/01/31 05:38:49;;;;;;;30.40;16.20;;;;;;;-0.23;78.55;100468.48;107542;1254;99192;-60
2023/01/31 05:41:17;;;;;;;30.20;14.90;;;;;;;-0.20;78.74;100468.91;107551;1254;113092;-60
2023/01/31 05:43:46;;;;;;;26.30;15.10;;;;;;;-0.18;78.82;100471.63;107510;1254;109329;-60
2023/01/31 05:46:14;;;;;;;32.70;16.00;;;;;;;-0.14;78.93;100475.13;107508;1253;108231;-60
2023/01/31 05:48:43;;;;;;;28.50;15.20;;;;;;;-0.10;79.01;100470.70;107527;1254;99191;-59
2023/01/31 05:51:11;;;;;;;34.90;16.60;;;;;;;-0.05;79.11;100475.55;107504;1253;99798;-59
2023/01/31 05:53:39;;;;;;;32.10;15.00;;;;;;;-0.00;79.01;100476.41;107515;1256;112372;-59
2023/01/31 05:56:08;;;;;;;26.10;15.40;;;;;;;0.06;79.19;100480.33;107525;1254;108316;-60
2023/01/31 05:58:36;;;;;;;28.90;14.20;;;;;;;0.15;79.31;100479.89;107533;1254;108217;-60
2023/01/31 06:01:05;;;;;;;54.10;23.30;;;;;;;0.19;79.05;100484.43;107481;1254;99191;-58
2023/01/31 06:03:33;;;;;;;31.60;15.40;;;;;;;0.21;78.81;100485.56;107565;1253;99183;-59
2023/01/31 06:06:04;;;;;;;24.90;13.60;;;;;;;0.27;78.92;100487.74;107578;1254;113625;-66
2023/01/31 06:08:32;;;;;;;29.90;16.70;;;;;;;0.30;78.86;100494.45;107546;1254;110001;-59
2023/01/31 06:11:03;;;;;;;30.50;15.30;;;;;;;0.34;78.90;100496.75;107537;1254;108527;-60
2023/01/31 06:13:32;;;;;;;41.00;19.50;;;;;;;0.37;78.83;100494.34;107536;1256;99179;-59
2023/01/31 06:16:00;;;;;;;28.50;15.80;;;;;;;0.41;78.81;100498.71;107554;1254;99911;-59
2023/01/31 06:18:30;;;;;;;31.90;16.40;;;;;;;0.43;78.70;100494.03;107533;1254;113713;-62
2023/01/31 06:20:58;;;;;;;40.90;20.60;;;;;;;0.47;78.76;100496.45;107522;1253;108912;-60
2023/01/31 06:23:27;;;;;;;38.40;21.70;;;;;;;0.53;78.90;100496.34;107518;1256;107174;-61
2023/01/31 06:25:56;;;;;;;39.00;21.90;;;;;;;0.61;78.89;100502.80;107554;1254;99199;-59
2023/01/31 06:28:25;;;;;;;40.10;21.50;;;;;;;0.67;78.62;100503.21;107442;1254;99794;-60
2023/01/31 06:30:54;;;;;;;42.50;20.40;;;;;;;0.72;78.47;100502.27;107586;1256;111472;-59
2023/01/31 06:33:23;;;;;;;33.90;16.90;;;;;;;0.79;78.19;100497.68;107597;1254;109073;-60
2023/01/31 06:36:11;;;;;;;31.40;15.10;;;;;;;0.86;78.09;100502.59;107569;1256;108376;-59
2023/01/31 06:38:39;;;;;;;26.70;15.60;;;;;;;0.93;78.25;100511.23;107525;1256;99314;-60
2023/01/31 06:41:08;;;;;;;32.60;16.30;;;;;;;0.98;77.94;100507.46;107598;1254;99223;-59
2023/01/31 06:43:36;;;;;;;29.40;16.00;;;;;;;1.00;77.68;100514.20;107583;1254;113240;-60
2023/01/31 06:46:04;;;;;;;31.70;18.10;;;;;;;1.02;77.65;100514.14;107564;1254;109818;-60
2023/01/31 06:48:33;;;;;;;32.40;16.20;;;;;;;1.04;77.59;100515.74;107535;1256;109843;-60
2023/01/31 06:51:01;;;;;;;24.70;15.00;;;;;;;1.05;77.23;100517.29;107547;1254;99261;-58
2023/01/31 06:53:30;;;;;;;30.50;16.10;;;;;;;1.01;76.63;100520.54;107552;1253;99737;-62
2023/01/31 06:55:58;;;;;;;40.10;17.00;;;;;;;0.98;76.57;100527.95;107587;1257;114514;-59
2023/01/31 06:58:27;;;;;;;33.10;16.80;;;;;;;0.96;76.67;100533.88;107591;1254;110141;-60
2023/01/31 07:00:57;;;;;;;30.10;17.80;;;;;;;0.95;76.82;100539.20;107548;1254;108508;-59
2023/01/31 07:03:26;;;;;;;36.80;18.00;;;;;;;0.96;76.79;100540.75;107565;1254;99211;-60
2023/01/31 07:05:54;;;;;;;38.70;18.40;;;;;;;0.96;76.62;100540.38;107561;1254;99714;-60
2023/01/31 07:08:23;;;;;;;35.00;17.80;;;;;;;0.99;76.66;100542.02;107584;1256;113581;-59
2023/01/31 07:10:51;;;;;;;41.20;18.40;;;;;;;1.02;76.73;100544.67;107521;1255;109031;-61
2023/01/31 07:13:21;;;;;;;36.60;18.00;;;;;;;1.07;76.68;100546.02;107508;1258;108149;-62
2023/01/31 07:15:49;;;;;;;40.80;18.50;;;;;;;1.12;76.74;100550.35;107405;1254;99658;-61
2023/01/31 07:18:17;;;;;;;39.30;19.60;;;;;;;1.18;76.65;100558.16;107558;1255;99154;-58
2023/01/31 07:20:46;;;;;;;36.70;20.10;;;;;;;1.21;76.38;100555.30;107645;1253;113350;-60
2023/01/31 07:23:15;;;;;;;48.90;23.00;;;;;;;1.24;76.29;100555.13;107641;1252;108774;-59
2023/01/31 07:25:43;;;;;;;36.50;18.40;;;;;;;1.25;76.41;100559.52;107520;1256;107730;-60
2023/01/31 07:28:12;;;;;;;37.30;20.70;;;;;;;1.28;76.46;100561.88;107617;1255;99199;-58
2023/01/31 07:30:42;;;;;;;38.80;21.60;;;;;;;1.29;76.59;100561.45;107637;1253;99188;-60
2023/01/31 07:33:11;;;;;;;45.50;20.70;;;;;;;1.33;76.55;100564.43;107666;1255;113656;-58
2023/01/31 07:35:42;;;;;;;41.00;20.50;;;;;;;1.37;76.57;100565.13;107603;1255;109795;-62
2023/01/31 07:38:10;;;;;;;42.00;21.20;;;;;;;1.41;76.54;100567.89;107627;1254;108684;-59
2023/01/31 07:40:39;;;;;;;42.50;21.10;;;;;;;1.42;76.13;100576.33;107518;1254;99335;-59
2023/01/31 07:43:07;;;;;;;34.00;19.60;;;;;;;1.44;76.46;100576.37;107584;1254;99294;-62
2023/01/31 07:45:38;;;;;;;38.00;18.60;;;;;;;1.47;76.62;100576.77;107568;1254;113599;-59
2023/01/31 07:48:07;;;;;;;35.60;18.90;;;;;;;1.50;76.62;100573.05;107583;1256;107714;-59
2023/01/31 07:50:35;;;;;;;36.80;18.50;;;;;;;1.54;77.03;100569.81;107532;1254;107351;-59
2023/01/31 07:53:03;;;;;;;39.60;17.80;;;;;;;1.60;76.91;100580.66;107601;1254;99170;-60
2023/01/31 07:55:32;;;;;;;29.90;15.80;;;;;;;1.62;76.43;100584.61;107520;1254;99284;-60
2023/01/31 07:58:00;;;;;;;32.10;16.80;;;;;;;1.63;75.88;100583.30;107558;1254;113384;-59
2023/01/31 08:03:34;;;;;;;35.70;17.20;;;;;;;1.72;75.31;100586.34;107617;1254;108735;-59
2023/01/31 08:06:11;;;;;;;35.30;17.00;;;;;;;1.81;74.78;100586.43;107552;1254;99140;-60
2023/01/31 08:08:41;;;;;;;28.00;14.50;;;;;;;1.79;73.79;100586.67;107568;1254;99704;-59
2023/01/31 08:11:09;;;;;;;30.30;14.80;;;;;;;1.79;73.12;100590.27;107565;1254;113657;-59
2023/01/31 08:13:38;;;;;;;30.40;15.70;;;;;;;1.76;71.55;100596.23;107543;1254;110025;-61
2023/01/31 08:16:08;;;;;;;36.70;16.00;;;;;;;1.71;71.49;100597.91;107495;1254;107669;-60
2023/01/31 08:18:37;;;;;;;29.70;16.10;;;;;;;1.67;70.93;100601.83;107376;1259;99214;-62
2023/01/31 08:21:06;;;;;;;34.60;17.40;;;;;;;1.65;70.78;100603.00;107482;1255;99165;-63
2023/01/31 08:23:36;;;;;;;31.30;16.70;;;;;;;1.66;71.15;100608.11;107520;1254;113704;-59
2023/01/31 08:26:17;;;;;;;30.80;16.70;;;;;;;1.66;70.67;100612.70;107542;1254;110062;-59
2023/01/31 08:28:48;;;;;;;34.10;15.60;;;;;;;1.56;69.80;100623.80;107529;1255;107103;-59
2023/01/31 08:31:19;;;;;;;35.50;15.00;;;;;;;1.45;69.91;100628.82;107496;1254;99209;-60
2023/01/31 08:33:51;;;;;;;33.40;16.00;;;;;;;1.37;70.02;100633.98;107515;1260;100293;-59
2023/01/31 08:36:26;;;;;;;31.90;15.90;;;;;;;1.33;70.24;100631.39;107549;1254;113631;-60
2023/01/31 08:38:54;;;;;;;34.50;15.10;;;;;;;1.33;70.51;100627.88;107504;1254;109643;-60
2023/01/31 08:41:25;;;;;;;35.60;15.00;;;;;;;1.31;70.58;100633.41;107495;1254;108333;-61
2023/01/31 08:43:55;;;;;;;36.10;17.00;;;;;;;1.32;71.00;100636.18;107542;1253;99083;-59
2023/01/31 08:46:30;;;;;;;31.20;15.00;;;;;;;1.35;71.30;100635.66;107580;1256;99066;-61
2023/01/31 08:49:01;;;;;;;36.30;16.20;;;;;;;1.37;71.35;100642.48;107538;1255;113164;-60
2023/01/31 08:51:29;;;;;;;32.30;14.80;;;;;;;1.43;71.44;100642.54;107507;1255;109457;-59
2023/01/31 08:53:58;;;;;;;27.60;13.10;;;;;;;1.48;71.49;100638.39;107467;1254;107241;-61
2023/01/31 08:56:27;;;;;;;28.70;13.20;;;;;;;1.49;71.17;100643.97;107533;1257;99269;-61
2023/01/31 08:58:56;;;;;;;19.30;9.20;;;;;;;1.50;71.39;100648.73;107470;1258;99163;-59
2023/01/31 09:01:25;;;;;;;22.90;11.70;;;;;;;1.52;71.32;100649.50;107494;1254;113228;-62
2023/01/31 09:03:55;;;;;;;22.80;11.00;;;;;;;1.57;71.38;100652.20;107548;1257;110012;-59
2023/01/31 09:06:26;;;;;;;19.70;9.70;;;;;;;1.64;71.38;100653.81;107549;1254;108570;-61
2023/01/31 09:08:56;;;;;;;31.80;10.30;;;;;;;1.69;71.52;100656.52;107463;1254;99194;-59
2023/01/31 09:11:29;;;;;;;14.00;8.40;;;;;;;1.78;71.33;100655.54;107530;1254;99707;-60
2023/01/31 09:13:58;;;;;;;13.20;7.40;;;;;;;1.79;70.76;100657.59;107468;1254;113538;-58
2023/01/31 09:16:26;;;;;;;20.40;8.70;;;;;;;1.77;70.11;100658.58;107572;1254;110067;-60
2023/01/31 09:18:55;;;;;;;20.40;8.10;;;;;;;1.73;70.30;100655.65;107613;1256;108786;-59
2023/01/31 09:21:24;;;;;;;19.30;8.50;;;;;;;1.67;70.25;100661.04;107617;1254;99169;-62
2023/01/31 09:23:56;;;;;;;23.90;10.00;;;;;;;1.64;70.34;100663.73;107541;1254;99872;-63
2023/01/31 09:26:25;;;;;;;19.10;9.60;;;;;;;1.60;70.75;100662.17;107593;1254;112808;-60
2023/01/31 09:28:54;;;;;;;18.90;9.50;;;;;;;1.61;70.82;100662.98;107567;1254;110042;-59
2023/01/31 09:31:23;;;;;;;21.30;11.10;;;;;;;1.64;71.13;100657.36;107572;1253;108766;-60
2023/01/31 09:33:53;;;;;;;19.20;11.00;;;;;;;1.64;71.20;100655.39;107551;1254;99074;-59
2023/01/31 09:36:23;;;;;;;23.20;10.70;;;;;;;1.64;70.94;100653.81;107542;1253;100978;-58
2023/01/31 09:38:55;;;;;;;23.80;11.60;;;;;;;1.61;70.70;100654.86;107598;1254;113612;-59
2023/01/31 09:41:28;;;;;;;25.30;11.70;;;;;;;1.59;70.58;100653.89;107579;1254;110274;-60
2023/01/31 09:44:09;;;;;;;33.50;12.30;;;;;;;1.61;70.65;100652.40;107576;1254;107418;-61
2023/01/31 09:46:47;;;;;;;21.00;11.70;;;;;;;1.62;70.55;100656.40;107522;1256;99245;-60
2023/01/31 09:49:22;;;;;;;26.50;11.30;;;;;;;1.66;70.66;100650.31;107582;1254;99746;-60
2023/01/31 09:51:56;;;;;;;21.50;11.60;;;;;;;1.72;70.47;100648.95;107532;1254;113562;-61
2023/01/31 09:54:30;;;;;;;24.20;11.30;;;;;;;1.80;70.54;100648.16;107555;1254;109680;-59
2023/01/31 09:57:01;;;;;;;19.50;9.90;;;;;;;1.87;70.19;100646.92;107637;1256;108319;-61
2023/01/31 09:59:53;;;;;;;20.00;10.80;;;;;;;1.96;70.21;100643.61;107532;1254;99107;-59
2023/01/31 10:02:34;;;;;;;26.60;11.80;;;;;;;2.09;69.58;100643.44;107558;1254;99061;-62
2023/01/31 10:05:28;;;;;;;23.70;11.10;;;;;;;2.20;69.33;100642.45;107561;1254;112697;-61
2023/01/31 10:08:08;;;;;;;20.10;10.90;;;;;;;2.31;69.05;100643.96;107584;1255;110210;-60
2023/01/31 10:10:50;;;;;;;19.30;9.60;;;;;;;2.38;69.02;100643.08;107549;1253;108244;-59
2023/01/31 10:13:35;;;;;;;21.50;10.80;;;;;;;2.44;69.03;100646.45;107509;1252;100992;-60
2023/01/31 10:16:16;;;;;;;21.30;11.00;;;;;;;2.48;68.53;100650.83;107583;1253;99221;-59
2023/01/31 10:18:49;;;;;;;23.80;11.10;;;;;;;2.51;68.62;100646.42;107549;1254;113128;-59
2023/01/31 10:21:21;;;;;;;21.70;10.10;;;;;;;2.55;68.53;100646.56;107542;1253;109261;-60
2023/01/31 10:23:57;;;;;;;21.60;10.90;;;;;;;2.56;68.14;100638.86;107552;1254;107157;-59
2023/01/31 10:26:32;;;;;;;20.40;10.70;;;;;;;2.58;68.43;100637.85;107562;1254;99092;-59
2023/01/31 10:29:27;;;;;;;19.60;11.30;;;;;;;2.62;68.30;100632.48;107586;1254;99736;-59
2023/01/31 10:32:11;;;;;;;27.40;11.40;;;;;;;2.67;68.31;100628.70;107585;1254;113812;-59
2023/01/31 10:35:14;;;;;;;23.50;11.70;;;;;;;2.72;68.41;100627.36;107608;1254;108343;-61
2023/01/31 10:37:51;;;;;;;20.70;11.50;;;;;;;2.75;68.29;100626.44;107229;1254;108829;-59
2023/01/31 10:40:40;;;;;;;32.20;16.90;;;;;;;2.78;68.53;100627.34;107580;1254;99291;-59
2023/01/31 10:43:30;;;;;;;21.00;10.70;;;;;;;2.79;68.49;100619.48;107451;1254;99318;-59
2023/01/31 10:46:00;;;;;;;21.10;11.10;;;;;;;2.78;68.75;100619.36;107057;1253;112724;-59
2023/01/31 10:48:29;;;;;;;26.50;12.20;;;;;;;2.77;68.89;100622.25;107611;1254;108715;-59
2023/01/31 10:51:12;;;;;;;17.80;11.00;;;;;;;2.80;69.13;100618.90;107546;1254;107892;-59
2023/01/31 10:53:43;;;;;;;18.40;9.70;;;;;;;2.84;69.07;100617.77;107533;1256;99259;-59
2023/01/31 10:56:28;;;;;;;22.20;9.90;;;;;;;2.88;68.68;100620.02;107553;1254;99204;-60
2023/01/31 10:58:57;;;;;;;;;;;;;;;2.99;68.53;100613.38;107564;1254;113291;-60
2023/01/31 11:01:27;;;;;;;19.30;10.50;;;;;;;3.11;68.17;100615.11;107540;1254;109114;-60
2023/01/31 11:03:56;;;;;;;21.70;10.60;;;;;;;3.28;67.68;100615.18;107618;1254;107691;-60
2023/01/31 11:06:24;;;;;;;18.50;10.50;;;;;;;3.42;67.29;100612.73;107549;1254;99082;-60
2023/01/31 11:08:57;;;;;;;16.80;9.60;;;;;;;3.52;66.78;100611.41;107477;1254;99106;-59
2023/01/31 11:11:28;;;;;;;14.70;9.30;;;;;;;3.63;66.63;100611.10;107585;1254;112677;-59
2023/01/31 11:13:57;;;;;;;13.20;8.60;;;;;;;3.72;66.40;100612.33;107577;1253;108144;-59
2023/01/31 11:16:34;;;;;;;16.00;9.50;;;;;;;3.77;66.33;100618.02;107534;1253;108715;-58
2023/01/31 11:19:34;;;;;;;17.30;9.60;;;;;;;3.81;65.96;100613.00;107493;1254;99193;-59
2023/01/31 11:22:04;;;;;;;20.80;11.10;;;;;;;3.73;66.04;100618.47;107502;1254;99194;-60
2023/01/31 11:24:36;;;;;;;17.60;10.40;;;;;;;3.69;66.17;100618.52;107532;1254;112901;-60
2023/01/31 11:27:09;;;;;;;21.70;10.50;;;;;;;3.65;65.95;100616.48;107461;1254;109615;-60
2023/01/31 11:29:43;;;;;;;24.50;11.90;;;;;;;3.61;66.18;100616.36;107469;1257;107787;-60
2023/01/31 11:32:16;;;;;;;;;;;;;;;3.61;66.28;100619.73;107464;1253;99205;-58
2023/01/31 11:35:04;;;;;;;20.70;10.50;;;;;;;3.59;66.44;100622.88;107551;1253;99694;-60